WetterOnline ( https://www.wetteronline.de )

Wetter aktuell Lunzenau

Aktuelles Wetter: Chemnitz (420m)

6-stündlich | Neueste Meldungen
Ortszeit Temperatur Wetter
Sa, 24.08. 8:00 17.3° C wolkenlos
Sa, 24.08. 2:00 16.3° C wolkenlos
Fr, 23.08. 20:00 22.7° C wolkenlos
Fr, 23.08. 14:00 23.8° C wolkenlos
Fr, 23.08. 8:00 16.3° C wolkenlos
Fr, 23.08. 2:00 15.5° C wolkenlos
Do, 22.08. 20:00 21.2° C wolkenlos
Do, 22.08. 14:00 22.6° C wolkenlos
Ortszeit Temperatur Wetter
Sa, 24.08. 11:30 21.8° C bewölkt
Sa, 24.08. 11:20 21.8° C bewölkt
Sa, 24.08. 11:10 21.3° C bewölkt
Sa, 24.08. 11:00 21.5° C leicht bewölkt
Sa, 24.08. 10:50 21.5° C leicht bewölkt
Sa, 24.08. 10:40 21.4° C wolkenlos
Sa, 24.08. 10:30 20.4° C wolkenlos
Sa, 24.08. 10:00 19.3° C leicht bewölkt
Sa, 24.08. 9:30 18.7° C fast wolkenlos
Sa, 24.08. 9:00 17.9° C wolkenlos
Sa, 24.08. 8:30 17.9° C wolkenlos
Ortszeit Relative Feuchte Sichtweite
Sa, 24.08. 8:00 75% 14 km
Sa, 24.08. 2:00 71% 21 km
Fr, 23.08. 20:00 47% 35 km
Fr, 23.08. 14:00 37% 30 km
Fr, 23.08. 8:00 66% 21 km
Fr, 23.08. 2:00 64% 30 km
Do, 22.08. 20:00 43% 65 km
Do, 22.08. 14:00 37% 55 km
Ortszeit Relative Feuchte Sichtweite
Sa, 24.08. 11:30 65% 19 km
Sa, 24.08. 11:20 65% -
Sa, 24.08. 11:10 65% -
Sa, 24.08. 11:00 66% 17 km
Sa, 24.08. 10:50 66% -
Sa, 24.08. 10:40 65% -
Sa, 24.08. 10:30 68% 16 km
Sa, 24.08. 10:00 70% 13 km
Sa, 24.08. 9:30 72% 18 km
Sa, 24.08. 9:00 74% 15 km
Sa, 24.08. 8:30 74% 15 km
Ortszeit Niederschlagsmenge Niederschlagsart
Sa, 24.08. 8:00 0.0 l/m2 in 12 Std. -
Sa, 24.08. 2:00 0.0 l/m2 in 6 Std. -
Fr, 23.08. 20:00 0.0 l/m2 in 12 Std. -
Fr, 23.08. 14:00 0.0 l/m2 in 6 Std. -
Fr, 23.08. 8:00 0.0 l/m2 in 12 Std. -
Fr, 23.08. 2:00 0.0 l/m2 in 6 Std. -
Do, 22.08. 20:00 0.0 l/m2 in 12 Std. -
Do, 22.08. 14:00 0.0 l/m2 in 6 Std. -
Ortszeit Niederschlagsmenge Niederschlagsart
Sa, 24.08. 11:30 0.0 l/m2 in 1 Std. -
Sa, 24.08. 11:20 keine Meldung -
Sa, 24.08. 11:10 keine Meldung -
Sa, 24.08. 11:00 0.0 l/m2 in 1 Std. -
Sa, 24.08. 10:50 keine Meldung -
Sa, 24.08. 10:40 keine Meldung -
Sa, 24.08. 10:30 0.0 l/m2 in 1 Std. -
Sa, 24.08. 10:00 0.0 l/m2 in 1 Std. -
Sa, 24.08. 9:30 0.0 l/m2 in 1 Std. -
Sa, 24.08. 9:00 0.0 l/m2 in 1 Std. -
Sa, 24.08. 8:30 0.0 l/m2 in 1 Std. -
Ortszeit Stärke Spitze Richtung
km/h Bft. km/h Grad Sektor
Sa, 24.08. 8:00 7 2 14 110° O
Sa, 24.08. 2:00 7 2 18 120° SO
Fr, 23.08. 20:00 14 3 36 40° NO
Fr, 23.08. 14:00 7 2 25 50° NO
Fr, 23.08. 8:00 4 1 11 150° SO
Fr, 23.08. 2:00 4 1 11 160° S
Do, 22.08. 20:00 7 2 22 50° NO
Do, 22.08. 14:00 6 1 28 130° SO
Ortszeit Stärke Spitze Richtung
km/h Bft. km/h Grad Sektor
Sa, 24.08. 11:30 7 2 14 70° O
Sa, 24.08. 11:20 7 2 - 70° O
Sa, 24.08. 11:10 7 2 - 50° NO
Sa, 24.08. 11:00 9 2 15 70° O
Sa, 24.08. 10:50 9 2 - 70° O
Sa, 24.08. 10:40 7 2 - 80° O
Sa, 24.08. 10:30 7 2 14 50° NO
Sa, 24.08. 10:00 7 2 14 70° O
Sa, 24.08. 9:30 7 2 13 70° O
Sa, 24.08. 9:00 7 2 14 100° O
Sa, 24.08. 8:30 7 2 14 120° SO
Ortszeit Untergrenze Bedeckung Gattung
total tief tief mittel hoch
Sa, 24.08. 8:00 - 0/8 0/8 - - -
Sa, 24.08. 2:00 - 0/8 0/8 - - -
Fr, 23.08. 20:00 - 0/8 0/8 - - -
Fr, 23.08. 14:00 - 0/8 0/8 - - -
Fr, 23.08. 8:00 - 0/8 0/8 - - -
Fr, 23.08. 2:00 - 0/8 0/8 - - -
Do, 22.08. 20:00 - 0/8 0/8 - - -
Do, 22.08. 14:00 - 0/8 0/8 - - -
Ortszeit Bedeckungsgrad in Achtel und Wolkenuntergrenze
Sa, 24.08. 11:30 7(1500m) 7(7800m) 8(9000m)
Sa, 24.08. 11:20 7(1500m) 7(7800m) 8(9000m)
Sa, 24.08. 11:10 7(1500m) 7(8700m) 7(9000m)
Sa, 24.08. 11:00 3(1500m) 5(8700m) 6(9000m)
Sa, 24.08. 10:50 3(1500m)
Sa, 24.08. 10:40 keine Wolken
Sa, 24.08. 10:30 keine Wolken
Sa, 24.08. 10:00 6(8100m) 7(9000m)
Sa, 24.08. 9:30 1(9000m) 5(9000m)
Sa, 24.08. 9:00 keine Wolken
Sa, 24.08. 8:30 keine Wolken
Ortszeit Luftdruck NN (hPa) Tendenz (hPa in 3 Std.)
Sa, 24.08. 8:00 1023 - 0,3
Sa, 24.08. 2:00 1024 - 0,6
Fr, 23.08. 20:00 1023 - 0,6
Fr, 23.08. 14:00 1025 - 1,0
Fr, 23.08. 8:00 1027 + 0,4
Fr, 23.08. 2:00 1027 + 0,1
Do, 22.08. 20:00 1025 - 0,1
Do, 22.08. 14:00 1025 - 1,3
Ortszeit Luftdruck NN (hPa) Tendenz (hPa in 3 Std.)
Sa, 24.08. 11:30 1022 - 0,1
Sa, 24.08. 11:20 1022 keine Meldung
Sa, 24.08. 11:10 1023 keine Meldung
Sa, 24.08. 11:00 1023 + 0,1
Sa, 24.08. 10:50 1023 keine Meldung
Sa, 24.08. 10:40 1023 keine Meldung
Sa, 24.08. 10:30 1023 + 0,1
Sa, 24.08. 10:00 1023 - 0,1
Sa, 24.08. 9:30 1023 - 0,2
Sa, 24.08. 9:00 1023 - 0,2
Sa, 24.08. 8:30 1023 - 0,1
Ortszeit Schneehöhe (cm)
Sa, 24.08. 8:00 -
Sa, 24.08. 2:00 -
Fr, 23.08. 20:00 -
Fr, 23.08. 14:00 -
Fr, 23.08. 8:00 -
Fr, 23.08. 2:00 -
Do, 22.08. 20:00 -
Do, 22.08. 14:00 -
Ortszeit Schneehöhe (cm)
Sa, 24.08. 11:30 -
Sa, 24.08. 11:20 -
Sa, 24.08. 11:10 -
Sa, 24.08. 11:00 -
Sa, 24.08. 10:50 -
Sa, 24.08. 10:40 -
Sa, 24.08. 10:30 -
Sa, 24.08. 10:00 -
Sa, 24.08. 9:30 -
Sa, 24.08. 9:00 -
Sa, 24.08. 8:30 -
Link zu dieser Seite / Seite empfehlen

Das Wetter in ...